Time;durP1;ratioP1;P1;durP2;ratioP2;P2;SDS_P1;SDS_P2;PMS_P1;PMS_P2;Temp;Humidity;BMP_temperature;BMP_pressure;BME280_temperature;BME280_humidity;BME280_pressure;Samples;Min_cycle;Max_cycle;Signal;HPM_P1;HPM_P2
2022/10/30 00:01:42;;;;;;;89.93;44.78;;;;;;;17.70;69.63;101298.88;4928628;28;120140;-75
2022/10/30 00:04:08;;;;;;;86.25;43.97;;;;;;;17.74;69.41;101304.22;4924005;28;119953;-76
2022/10/30 00:06:34;;;;;;;92.43;46.83;;;;;;;17.74;69.37;101288.38;4916782;28;119511;-76
2022/10/30 00:08:59;;;;;;;99.20;48.03;;;;;;;17.76;69.45;101302.50;4924939;28;119867;-76
2022/10/30 00:11:25;;;;;;;99.57;47.38;;;;;;;17.75;69.57;101292.66;4902308;28;121656;-76
2022/10/30 00:13:51;;;;;;;93.65;46.58;;;;;;;17.75;69.59;101289.13;4923535;28;119939;-76
2022/10/30 00:16:16;;;;;;;91.72;46.42;;;;;;;17.79;69.45;101292.44;4919123;28;120054;-76
2022/10/30 00:18:42;;;;;;;87.82;45.30;;;;;;;17.81;69.33;101289.19;4928913;28;120762;-76
2022/10/30 00:21:13;;;;;;;95.75;46.78;;;;;;;17.80;69.18;101291.19;4913288;28;120192;-76
2022/10/30 00:23:48;;;;;;;97.57;47.83;;;;;;;17.77;69.74;101295.72;4931252;28;119855;-76
2022/10/30 00:26:14;;;;;;;93.20;46.30;;;;;;;17.73;69.48;101286.81;4921744;28;119870;-75
2022/10/30 00:28:40;;;;;;;92.88;46.22;;;;;;;17.76;69.53;101280.31;4930069;28;119911;-76
2022/10/30 00:31:06;;;;;;;92.15;46.20;;;;;;;17.73;69.79;101292.34;4930265;28;121056;-76
2022/10/30 00:33:32;;;;;;;89.45;46.55;;;;;;;17.61;69.60;101276.81;4912470;28;120266;-76
2022/10/30 00:35:58;;;;;;;91.77;46.00;;;;;;;17.64;69.94;101280.63;4912522;28;120103;-75
2022/10/30 00:38:23;;;;;;;89.53;46.10;;;;;;;17.60;70.19;101266.97;4929882;28;120028;-76
2022/10/30 00:40:49;;;;;;;92.50;46.95;;;;;;;17.61;70.27;101259.41;4912545;28;120597;-76
2022/10/30 00:43:25;;;;;;;96.00;47.45;;;;;;;17.61;70.48;101245.53;4927211;28;119671;-76
2022/10/30 00:45:58;;;;;;;91.37;45.80;;;;;;;17.60;70.43;101255.84;4933053;28;120999;-75
2022/10/30 00:48:25;;;;;;;93.20;46.25;;;;;;;17.60;70.11;101282.84;4930232;28;119148;-75
2022/10/30 00:50:52;;;;;;;97.43;46.97;;;;;;;17.66;70.32;101278.88;4929819;28;120278;-76
2022/10/30 00:53:20;;;;;;;93.50;46.83;;;;;;;17.59;70.63;101257.09;4918706;28;120493;-76
2022/10/30 00:55:55;;;;;;;92.43;47.05;;;;;;;17.60;70.74;101275.28;4929190;28;120320;-75
2022/10/30 00:58:25;;;;;;;93.63;47.22;;;;;;;17.59;70.55;101267.44;4935576;28;119971;-76
2022/10/30 01:00:56;;;;;;;97.10;47.17;;;;;;;17.59;70.61;101265.44;4896609;28;121101;-76
2022/10/30 01:03:23;;;;;;;92.60;47.40;;;;;;;17.60;70.58;101266.97;4923974;28;120196;-76
2022/10/30 01:05:54;;;;;;;98.70;49.75;;;;;;;17.60;70.32;101271.75;4910764;28;120512;-76
2022/10/30 01:08:20;;;;;;;98.00;47.80;;;;;;;17.57;70.54;101259.59;4916814;28;120581;-75
2022/10/30 01:10:47;;;;;;;101.57;49.78;;;;;;;17.57;70.39;101259.59;4912055;28;120746;-76
2022/10/30 01:13:13;;;;;;;99.85;48.70;;;;;;;17.60;70.01;101257.88;4914646;28;120225;-75
2022/10/30 01:15:52;;;;;;;105.70;50.78;;;;;;;17.59;70.04;101259.13;4914779;28;120493;-76
2022/10/30 01:18:49;;;;;;;102.70;49.17;;;;;;;17.58;69.58;101266.69;4911443;28;120130;-76
2022/10/30 01:21:43;;;;;;;104.30;49.75;;;;;;;17.53;69.31;101267.38;4905876;28;120257;-76
2022/10/30 01:24:34;;;;;;;95.88;48.15;;;;;;;17.54;69.11;101284.78;4919058;28;119987;-76
2022/10/30 01:27:22;;;;;;;101.65;49.40;;;;;;;17.52;69.17;101287.28;4917226;28;120565;-76
2022/10/30 01:29:54;;;;;;;101.68;47.95;;;;;;;17.48;68.71;101277.13;4925984;28;119776;-76
2022/10/30 01:32:36;;;;;;;106.55;50.40;;;;;;;17.46;69.04;101281.63;4903702;28;119629;-74
2022/10/30 01:35:07;;;;;;;103.20;49.13;;;;;;;17.41;69.02;101277.53;4908697;28;119867;-76
2022/10/30 01:37:57;;;;;;;107.80;52.88;;;;;;;17.38;69.01;101274.97;4909059;28;120036;-76
2022/10/30 01:40:38;;;;;;;115.35;52.72;;;;;;;17.36;69.09;101269.91;4890424;28;119969;-76
2022/10/30 01:43:03;;;;;;;114.80;50.55;;;;;;;17.35;68.87;101262.09;4914697;28;119947;-75
2022/10/30 01:45:45;;;;;;;111.28;51.47;;;;;;;17.32;68.88;101263.06;4903042;28;120299;-76
2022/10/30 01:48:49;;;;;;;115.82;52.63;;;;;;;17.30;69.17;101254.47;4893928;28;119590;-76
2022/10/30 01:51:36;;;;;;;125.03;54.80;;;;;;;17.27;69.35;101258.16;4898150;28;119935;-75
2022/10/30 01:54:17;;;;;;;118.40;53.47;;;;;;;17.25;70.02;101257.88;4935739;28;120131;-76
2022/10/30 01:57:21;;;;;;;120.65;54.55;;;;;;;17.24;70.11;101257.13;4912681;28;120442;-76
2022/10/30 02:00:10;;;;;;;107.07;50.88;;;;;;;17.25;70.12;101249.56;4883281;28;120842;-76
2022/10/30 02:03:06;;;;;;;93.90;48.50;;;;;;;17.24;69.91;101245.28;4911968;28;120810;-75
2022/10/30 02:05:37;;;;;;;105.78;50.25;;;;;;;17.17;69.79;101225.03;4907912;28;119851;-75
2022/10/30 02:08:04;;;;;;;95.25;49.08;;;;;;;17.18;69.92;101234.13;4908211;28;119935;-76
2022/10/30 02:10:32;;;;;;;99.22;47.85;;;;;;;17.23;69.83;101235.44;4907608;28;119924;-75
2022/10/30 02:12:58;;;;;;;100.75;49.42;;;;;;;17.23;69.82;101233.44;4911150;28;119957;-75
2022/10/30 02:15:24;;;;;;;102.20;49.90;;;;;;;17.23;69.60;101230.66;4905627;28;120252;-75
2022/10/30 02:17:50;;;;;;;101.22;51.08;;;;;;;17.24;69.61;101226.63;4910813;28;120370;-75
2022/10/30 02:20:20;;;;;;;109.68;51.22;;;;;;;17.24;69.74;101221.09;4902417;28;120267;-76
2022/10/30 02:22:46;;;;;;;102.80;50.38;;;;;;;17.24;69.98;101223.09;4889847;28;120674;-75
2022/10/30 02:25:12;;;;;;;101.27;49.03;;;;;;;17.25;69.70;101230.16;4925650;28;119864;-76
2022/10/30 02:27:38;;;;;;;98.57;48.75;;;;;;;17.26;69.86;101223.38;4894178;28;120182;-75
2022/10/30 02:30:09;;;;;;;104.27;50.30;;;;;;;17.23;69.76;101219.56;4935317;28;121451;-75
2022/10/30 02:32:35;;;;;;;107.20;50.00;;;;;;;17.22;69.81;101217.28;4892305;28;120012;-75
2022/10/30 02:35:24;;;;;;;107.60;51.00;;;;;;;17.15;70.04;101205.34;4898697;28;120338;-75
2022/10/30 02:37:51;;;;;;;98.03;48.88;;;;;;;17.18;70.02;101212.69;4907564;28;120731;-75
2022/10/30 02:40:16;;;;;;;101.97;50.22;;;;;;;17.15;70.10;101197.03;4912005;28;120310;-75
2022/10/30 02:42:42;;;;;;;103.78;49.15;;;;;;;17.19;70.09;101200.38;4930658;28;119568;-76
2022/10/30 02:45:08;;;;;;;105.60;49.38;;;;;;;17.18;70.11;101198.84;4908218;28;120262;-76
2022/10/30 02:47:34;;;;;;;104.33;49.67;;;;;;;17.19;70.28;101196.84;4908887;28;120628;-76
2022/10/30 02:50:00;;;;;;;104.53;49.23;;;;;;;17.20;70.28;101192.81;4907648;28;120502;-76
2022/10/30 02:52:25;;;;;;;107.57;51.27;;;;;;;17.18;70.10;101192.53;4907762;28;120454;-76
2022/10/30 02:54:51;;;;;;;97.90;48.13;;;;;;;17.14;69.96;101189.22;4908146;28;120035;-76
2022/10/30 02:57:17;;;;;;;101.00;48.07;;;;;;;17.11;69.88;101187.41;4922719;28;120890;-75
2022/10/30 02:59:43;;;;;;;99.72;47.95;;;;;;;17.08;69.60;101189.13;4903317;28;119962;-76
2022/10/30 03:02:09;;;;;;;93.43;46.73;;;;;;;16.91;69.24;101167.97;4907665;28;120022;-76
2022/10/30 03:04:35;;;;;;;86.43;43.60;;;;;;;17.02;69.19;101191.03;4898646;28;119890;-76
2022/10/30 03:07:00;;;;;;;85.93;42.73;;;;;;;17.01;69.04;101194.31;4900718;28;120023;-76
2022/10/30 03:09:27;;;;;;;96.20;46.97;;;;;;;16.97;69.01;101194.50;4918110;28;119981;-74
2022/10/30 03:11:52;;;;;;;90.50;43.80;;;;;;;16.96;69.02;101189.44;4907482;28;120772;-76
2022/10/30 03:14:21;;;;;;;91.43;44.90;;;;;;;16.94;69.06;101189.94;4911350;28;120076;-76
2022/10/30 03:16:47;;;;;;;81.60;43.47;;;;;;;16.93;69.25;101193.19;4916183;28;120316;-76
2022/10/30 03:19:14;;;;;;;96.80;45.50;;;;;;;16.93;69.05;101193.94;4901618;28;119911;-76
2022/10/30 03:21:40;;;;;;;92.37;45.57;;;;;;;16.91;69.61;101190.91;4901502;28;119545;-76
2022/10/30 03:24:05;;;;;;;89.30;45.53;;;;;;;16.91;69.85;101196.44;4906840;28;120311;-76
2022/10/30 03:26:34;;;;;;;92.27;46.60;;;;;;;16.92;69.98;101195.19;4921146;28;119898;-76
2022/10/30 03:29:05;;;;;;;98.23;48.47;;;;;;;16.86;70.30;101180.50;4922872;28;119910;-75
2022/10/30 03:31:52;;;;;;;103.28;49.42;;;;;;;16.99;70.84;101200.34;4912769;28;120225;-75
2022/10/30 03:34:20;;;;;;;99.27;49.80;;;;;;;17.06;70.83;101199.94;4897588;28;120261;-76
2022/10/30 03:36:46;;;;;;;108.80;52.20;;;;;;;17.11;70.77;101202.03;4914124;28;120696;-76
2022/10/30 03:39:38;;;;;;;108.13;52.27;;;;;;;17.16;70.88;101204.09;4909165;28;120452;-75
2022/10/30 03:42:04;;;;;;;112.87;53.20;;;;;;;17.21;70.80;101199.88;4924217;28;119899;-75
2022/10/30 03:44:30;;;;;;;124.50;55.97;;;;;;;17.23;70.68;101197.38;4880055;28;121993;-76
2022/10/30 03:46:57;;;;;;;116.53;54.97;;;;;;;17.26;70.55;101187.34;4894060;28;120199;-76
2022/10/30 03:49:26;;;;;;;124.10;58.33;;;;;;;17.28;70.99;101191.16;4910963;28;119993;-75
2022/10/30 03:51:54;;;;;;;125.47;56.67;;;;;;;17.26;71.03;101174.22;4910231;28;120220;-74
2022/10/30 03:54:22;;;;;;;120.47;57.15;;;;;;;17.22;70.43;101168.13;4906950;28;120080;-76
2022/10/30 03:56:48;;;;;;;138.15;62.70;;;;;;;17.31;70.75;101172.81;4918677;28;120033;-76
2022/10/30 03:59:15;;;;;;;127.27;60.20;;;;;;;17.29;70.97;101178.06;4909675;28;120759;-78
2022/10/30 04:01:43;;;;;;;133.00;58.93;;;;;;;17.32;70.58;101169.53;4907406;28;119996;-75
2022/10/30 04:04:08;;;;;;;131.17;60.53;;;;;;;17.33;70.38;101159.22;4888497;28;120996;-76
2022/10/30 04:06:34;;;;;;;134.47;61.50;;;;;;;17.33;70.58;101165.53;4892321;28;119823;-76
2022/10/30 04:09:00;;;;;;;126.32;60.33;;;;;;;17.37;70.45;101163.28;4911551;28;119805;-76
2022/10/30 04:11:32;;;;;;;133.18;61.10;;;;;;;17.37;70.53;101165.31;4909267;28;120408;-76
2022/10/30 04:13:58;;;;;;;131.75;60.65;;;;;;;17.37;70.30;101171.63;4909449;28;120089;-76
2022/10/30 04:16:23;;;;;;;126.10;57.60;;;;;;;17.37;69.73;101162.53;4908677;28;120481;-76
2022/10/30 04:18:49;;;;;;;137.70;61.08;;;;;;;17.37;69.91;101170.84;4909358;28;120071;-76
2022/10/30 04:21:15;;;;;;;133.27;61.22;;;;;;;17.36;69.82;101174.88;4894761;28;119544;-76
2022/10/30 04:23:41;;;;;;;133.73;61.13;;;;;;;17.32;69.81;101166.78;4907491;28;121532;-76
2022/10/30 04:26:08;;;;;;;137.65;62.42;;;;;;;17.32;70.15;101168.78;4907372;28;120216;-75
2022/10/30 04:28:36;;;;;;;134.60;61.03;;;;;;;17.31;69.75;101170.03;4910756;28;120320;-76
2022/10/30 04:31:03;;;;;;;138.05;63.88;;;;;;;17.27;69.86;101175.78;4909291;28;120039;-75
2022/10/30 04:33:29;;;;;;;131.50;60.17;;;;;;;17.30;69.79;101179.59;4908245;28;119682;-76
2022/10/30 04:35:57;;;;;;;126.22;60.13;;;;;;;17.29;69.83;101175.31;4906842;28;119810;-77
2022/10/30 04:38:23;;;;;;;140.95;64.93;;;;;;;17.27;69.88;101177.78;4935210;28;120258;-76
2022/10/30 04:40:49;;;;;;;142.15;63.70;;;;;;;17.30;69.96;101179.59;4891558;28;121494;-75
2022/10/30 04:43:15;;;;;;;138.20;62.97;;;;;;;17.25;70.08;101164.38;4906450;28;120292;-75
2022/10/30 04:45:42;;;;;;;140.82;64.75;;;;;;;17.30;70.13;101169.25;4906632;28;120414;-76
2022/10/30 04:48:16;;;;;;;141.50;65.65;;;;;;;17.32;70.26;101171.56;4916665;28;119996;-75
2022/10/30 04:50:43;;;;;;;152.32;66.55;;;;;;;17.30;70.78;101162.97;4918609;28;119666;-76
2022/10/30 04:53:14;;;;;;;147.60;67.60;;;;;;;17.35;71.17;101173.34;4907651;28;120080;-75
2022/10/30 04:55:41;;;;;;;142.93;65.90;;;;;;;17.37;70.97;101166.06;4903740;28;120021;-76
2022/10/30 04:58:09;;;;;;;150.23;67.78;;;;;;;17.41;70.90;101165.84;4898694;28;120120;-76
2022/10/30 05:00:37;;;;;;;146.05;67.13;;;;;;;17.45;70.83;101167.16;4907283;28;119654;-76
2022/10/30 05:03:18;;;;;;;137.85;66.07;;;;;;;17.47;70.80;101159.13;4925465;28;119918;-76
2022/10/30 05:05:43;;;;;;;135.65;64.63;;;;;;;17.41;70.50;101147.22;4904436;28;119663;-75
2022/10/30 05:08:09;;;;;;;132.43;65.38;;;;;;;17.52;70.68;101157.69;4900355;28;120060;-76
2022/10/30 05:10:40;;;;;;;139.32;64.57;;;;;;;17.47;70.73;101158.34;4920840;28;119814;-76
2022/10/30 05:13:10;;;;;;;129.02;63.10;;;;;;;17.55;70.47;101165.03;4920353;28;121915;-75
2022/10/30 05:15:35;;;;;;;126.57;63.33;;;;;;;17.57;70.55;101164.53;4907065;28;120315;-76
2022/10/30 05:18:01;;;;;;;135.87;63.97;;;;;;;17.58;70.68;101166.06;4927730;28;119493;-76
2022/10/30 05:20:31;;;;;;;149.30;65.82;;;;;;;17.55;70.60;101155.94;4900046;28;119582;-76
2022/10/30 05:22:58;;;;;;;137.45;64.38;;;;;;;17.60;70.44;101169.88;4924354;28;119853;-76
2022/10/30 05:25:25;;;;;;;156.23;65.27;;;;;;;17.61;70.45;101181.72;4924221;28;120434;-76
2022/10/30 05:28:02;;;;;;;138.35;62.15;;;;;;;17.55;70.61;101159.47;4902463;28;120240;-75
2022/10/30 05:30:32;;;;;;;128.10;59.33;;;;;;;17.61;70.40;101174.16;4912353;28;120459;-76
2022/10/30 05:33:08;;;;;;;131.82;60.85;;;;;;;17.60;70.37;101180.19;4903814;28;119556;-76
2022/10/30 05:35:34;;;;;;;153.43;63.78;;;;;;;17.59;70.32;101182.22;4920870;28;120815;-75
2022/10/30 05:38:03;;;;;;;127.57;62.83;;;;;;;17.52;70.40;101177.09;4909962;28;120211;-76
2022/10/30 05:40:32;;;;;;;147.15;63.28;;;;;;;17.54;70.44;101184.94;4907766;28;120696;-76
2022/10/30 05:42:58;;;;;;;144.17;64.33;;;;;;;17.51;70.47;101178.34;4922372;28;121691;-76
2022/10/30 05:45:24;;;;;;;167.52;67.22;;;;;;;17.50;70.36;101179.56;4920296;28;119653;-76
2022/10/30 05:48:02;;;;;;;186.63;63.87;;;;;;;17.50;70.32;101179.56;4918506;28;119661;-76
2022/10/30 05:50:33;;;;;;;189.30;65.55;;;;;;;17.50;70.50;101185.13;4908591;28;120302;-76
2022/10/30 05:53:13;;;;;;;213.30;65.18;;;;;;;17.47;70.74;101178.53;4909714;28;120511;-76
2022/10/30 05:55:39;;;;;;;212.35;65.45;;;;;;;17.49;70.60;101178.81;4921406;28;120400;-76
2022/10/30 05:58:11;;;;;;;210.95;61.45;;;;;;;17.50;70.45;101196.22;4906846;28;120335;-76
2022/10/30 06:00:43;;;;;;;253.30;63.33;;;;;;;17.47;70.33;101191.63;4912395;28;120431;-77
2022/10/30 06:03:11;;;;;;;185.50;58.55;;;;;;;17.45;70.42;101192.13;4922319;28;120026;-76
2022/10/30 06:05:48;;;;;;;181.32;57.67;;;;;;;17.43;70.31;101197.41;4910261;28;120698;-76
2022/10/30 06:08:20;;;;;;;181.30;61.13;;;;;;;17.37;70.41;101188.25;4910836;28;120138;-76
2022/10/30 06:10:48;;;;;;;185.90;60.23;;;;;;;17.40;70.19;101197.59;4892530;28;120952;-75
2022/10/30 06:13:21;;;;;;;155.82;59.60;;;;;;;17.37;69.90;101196.56;4922519;28;120170;-75
2022/10/30 06:16:10;;;;;;;130.00;59.78;;;;;;;17.33;69.93;101189.72;4919264;28;120089;-75
2022/10/30 06:19:16;;;;;;;138.32;59.67;;;;;;;17.30;70.04;101187.91;4917678;28;120049;-76
2022/10/30 06:21:42;;;;;;;134.65;62.45;;;;;;;17.27;69.80;101177.78;4914524;28;120201;-75
2022/10/30 06:24:13;;;;;;;134.77;63.95;;;;;;;17.17;70.09;101169.59;4909497;28;120108;-76
2022/10/30 06:26:58;;;;;;;129.73;64.07;;;;;;;17.08;70.24;101158.66;4913416;28;119726;-75
2022/10/30 06:29:28;;;;;;;122.05;62.53;;;;;;;17.09;70.38;101176.81;4910952;28;120954;-76
2022/10/30 06:31:54;;;;;;;126.93;63.40;;;;;;;17.04;70.55;101160.88;4894071;28;122164;-76
2022/10/30 06:34:20;;;;;;;124.05;61.28;;;;;;;17.01;70.34;101167.34;4912975;28;119405;-76
2022/10/30 06:36:46;;;;;;;124.80;61.97;;;;;;;17.04;70.32;101176.72;4926339;28;120560;-76
2022/10/30 06:39:11;;;;;;;135.27;64.57;;;;;;;17.00;70.69;101168.59;4906146;28;121323;-75
2022/10/30 06:41:51;;;;;;;125.05;60.75;;;;;;;16.94;70.60;101175.31;4900672;28;120345;-75
2022/10/30 06:44:26;;;;;;;122.88;61.22;;;;;;;17.00;70.89;101199.09;4925824;28;119951;-76
2022/10/30 06:46:53;;;;;;;121.37;60.23;;;;;;;16.99;70.78;101192.03;4910071;28;119888;-76
2022/10/30 06:49:19;;;;;;;113.28;58.17;;;;;;;17.01;70.94;101183.97;4907088;28;120434;-76
2022/10/30 06:51:46;;;;;;;107.70;59.15;;;;;;;17.01;70.70;101175.66;4903894;28;120483;-76
2022/10/30 06:54:12;;;;;;;115.30;58.10;;;;;;;17.02;70.70;101182.72;4926774;28;119943;-76
2022/10/30 06:56:38;;;;;;;107.47;57.03;;;;;;;17.05;70.93;101179.03;4923456;28;120347;-76
2022/10/30 06:59:35;;;;;;;95.53;53.42;;;;;;;17.07;70.35;101175.78;4901794;28;122256;-76
2022/10/30 07:02:20;;;;;;;98.57;54.40;;;;;;;17.04;70.67;101166.41;4925534;28;120530;-76
2022/10/30 07:04:53;;;;;;;107.95;54.95;;;;;;;17.07;70.58;101181.31;4908557;28;120590;-76
2022/10/30 07:07:19;;;;;;;88.32;51.28;;;;;;;17.05;70.30;101183.81;4909587;28;119749;-76
2022/10/30 07:09:45;;;;;;;96.03;54.08;;;;;;;17.00;70.25;101171.38;4911486;28;120003;-76
2022/10/30 07:12:12;;;;;;;95.00;54.00;;;;;;;17.03;70.37;101181.50;4910725;28;120262;-75
2022/10/30 07:14:56;;;;;;;84.53;50.65;;;;;;;17.05;70.42;101187.34;4907234;28;120553;-76
2022/10/30 07:17:31;;;;;;;83.00;51.22;;;;;;;17.07;70.63;101187.63;4919196;28;120047;-76
2022/10/30 07:20:02;;;;;;;81.22;50.53;;;;;;;17.06;70.63;101190.88;4905451;28;120454;-76
2022/10/30 07:22:28;;;;;;;83.20;50.72;;;;;;;17.12;70.54;101200.03;4911793;28;120630;-75
2022/10/30 07:24:55;;;;;;;82.22;51.08;;;;;;;17.14;71.10;101205.84;4914646;28;120372;-76
2022/10/30 07:27:43;;;;;;;71.60;47.58;;;;;;;17.17;70.42;101213.19;4923739;28;120144;-75
2022/10/30 07:30:31;;;;;;;75.82;49.08;;;;;;;17.14;70.70;101203.06;4924918;28;120809;-75
2022/10/30 07:33:15;;;;;;;72.45;47.22;;;;;;;17.24;70.59;101206.47;4923212;28;120511;-76
2022/10/30 07:36:00;;;;;;;74.55;46.70;;;;;;;17.33;70.44;101217.44;4922589;28;119761;-76
2022/10/30 07:38:51;;;;;;;77.95;48.20;;;;;;;17.31;70.75;101194.97;4902989;28;119938;-75
2022/10/30 07:41:39;;;;;;;68.70;45.55;;;;;;;17.47;70.84;101222.91;4907259;28;120168;-77
2022/10/30 07:44:44;;;;;;;72.17;45.37;;;;;;;17.55;70.63;101223.28;4922026;28;121623;-77
2022/10/30 07:47:17;;;;;;;72.03;44.30;;;;;;;17.63;70.76;101223.59;4907561;28;119920;-75
2022/10/30 07:49:45;;;;;;;63.03;42.80;;;;;;;17.68;70.96;101212.59;4916546;28;119787;-76
2022/10/30 07:52:12;;;;;;;68.10;42.43;;;;;;;17.74;70.16;101221.78;4910914;28;119813;-75
2022/10/30 07:54:39;;;;;;;70.85;43.72;;;;;;;17.78;70.77;101222.31;4909285;28;120177;-76
2022/10/30 07:57:39;;;;;;;68.60;43.47;;;;;;;17.84;70.61;101227.16;4888260;28;120347;-76
2022/10/30 08:00:23;;;;;;;64.70;41.03;;;;;;;17.89;70.00;101237.56;4922474;28;120382;-77
2022/10/30 08:02:58;;;;;;;67.87;42.90;;;;;;;17.89;70.41;101229.22;4909511;28;120086;-76
2022/10/30 08:05:45;;;;;;;67.22;41.10;;;;;;;17.93;69.64;101230.53;4906693;28;120606;-75
2022/10/30 08:08:20;;;;;;;67.18;41.03;;;;;;;17.94;69.84;101222.97;4913010;28;120191;-76
2022/10/30 08:10:52;;;;;;;69.15;42.38;;;;;;;17.93;69.73;101224.22;4901088;28;120172;-76
2022/10/30 08:13:18;;;;;;;64.72;41.15;;;;;;;17.96;69.77;101234.34;4908006;28;120641;-76
2022/10/30 08:15:43;;;;;;;67.67;42.20;;;;;;;17.94;69.68;101222.97;4908258;28;120073;-76
2022/10/30 08:18:10;;;;;;;68.95;42.22;;;;;;;17.96;69.63;101231.56;4880116;28;119869;-76
2022/10/30 08:20:38;;;;;;;64.30;41.67;;;;;;;17.95;69.44;101230.03;4890943;28;119696;-75
2022/10/30 08:23:03;;;;;;;65.97;41.80;;;;;;;17.95;69.69;101230.81;4914370;28;120389;-76
2022/10/30 08:25:32;;;;;;;65.38;41.35;;;;;;;17.97;69.97;101231.09;4905796;28;120064;-75
2022/10/30 08:28:04;;;;;;;66.80;42.28;;;;;;;18.01;70.04;101228.88;4907166;28;120999;-76
2022/10/30 08:30:36;;;;;;;67.68;42.78;;;;;;;18.07;70.13;101229.69;4907300;28;120425;-76
2022/10/30 08:33:05;;;;;;;69.82;43.42;;;;;;;18.14;70.39;101236.81;4911719;28;120142;-76
2022/10/30 08:35:57;;;;;;;67.90;42.83;;;;;;;18.22;70.41;101229.59;4924619;28;120235;-75
2022/10/30 08:38:25;;;;;;;74.27;43.97;;;;;;;18.32;70.68;101221.84;4924649;28;120053;-76
2022/10/30 08:41:20;;;;;;;73.47;44.17;;;;;;;18.46;70.85;101232.09;4917444;28;120286;-76
2022/10/30 08:43:49;;;;;;;74.77;44.33;;;;;;;18.53;70.91;101216.97;4912910;28;120101;-77
2022/10/30 08:46:16;;;;;;;70.68;44.33;;;;;;;18.70;70.92;101229.03;4910666;28;119935;-76
2022/10/30 08:48:42;;;;;;;68.03;41.72;;;;;;;18.82;70.67;101233.41;4895845;28;120997;-76
2022/10/30 08:51:08;;;;;;;72.60;41.13;;;;;;;18.91;70.43;101235.97;4924533;28;120328;-76
2022/10/30 08:53:40;;;;;;;68.28;40.30;;;;;;;18.96;70.18;101232.50;4919816;28;119769;-75
2022/10/30 08:56:10;;;;;;;62.15;39.30;;;;;;;19.05;69.94;101233.56;4930704;28;120086;-76
2022/10/30 08:58:55;;;;;;;68.25;40.38;;;;;;;19.07;69.94;101223.47;4914404;28;120316;-76
2022/10/30 09:01:21;;;;;;;67.30;39.90;;;;;;;19.18;69.80;101225.56;4915719;28;120435;-76
2022/10/30 09:04:05;;;;;;;62.40;39.42;;;;;;;19.22;69.64;101231.66;4921771;28;119646;-76
2022/10/30 09:06:53;;;;;;;60.25;38.42;;;;;;;19.27;69.51;101233.69;4925799;28;120344;-76
2022/10/30 09:09:42;;;;;;;64.32;39.90;;;;;;;19.32;69.30;101232.94;4921439;28;120585;-76
2022/10/30 09:12:24;;;;;;;61.70;37.63;;;;;;;19.35;68.91;101234.72;4927256;28;120248;-76
2022/10/30 09:14:49;;;;;;;66.35;38.95;;;;;;;19.42;69.31;101245.41;4904720;28;120752;-76
2022/10/30 09:17:16;;;;;;;62.72;37.33;;;;;;;19.45;69.41;101233.28;4888490;28;122171;-76
2022/10/30 09:19:44;;;;;;;60.20;36.20;;;;;;;19.55;69.15;101237.38;4921907;28;122371;-77
2022/10/30 09:22:15;;;;;;;59.78;36.38;;;;;;;19.59;69.23;101243.47;4909883;28;120264;-75
2022/10/30 09:24:41;;;;;;;61.53;35.63;;;;;;;19.67;69.11;101237.44;4910328;28;119821;-75
2022/10/30 09:27:45;;;;;;;61.23;33.13;;;;;;;19.58;69.37;101241.94;4916202;28;120231;-76
2022/10/30 09:30:13;;;;;;;59.88;33.88;;;;;;;19.55;69.41;101245.75;4914045;28;120558;-75
2022/10/30 09:32:54;;;;;;;58.90;33.45;;;;;;;19.47;69.63;101244.66;4902776;28;121153;-76
2022/10/30 09:35:23;;;;;;;60.50;33.72;;;;;;;19.46;69.84;101256.28;4910111;28;120274;-75
2022/10/30 09:37:49;;;;;;;61.15;33.33;;;;;;;19.37;69.88;101235.00;4913482;28;120162;-75
2022/10/30 09:40:48;;;;;;;62.25;34.45;;;;;;;19.37;70.07;101254.47;4914444;28;120149;-76
2022/10/30 09:43:35;;;;;;;61.20;33.38;;;;;;;19.33;70.55;101256.72;4922841;28;120630;-76
2022/10/30 09:46:36;;;;;;;67.15;33.22;;;;;;;19.30;70.52;101252.91;4922826;28;120134;-76
2022/10/30 09:49:28;;;;;;;62.80;34.80;;;;;;;19.13;70.65;101229.03;4903567;28;120443;-76
2022/10/30 09:52:10;;;;;;;62.88;33.38;;;;;;;19.23;70.60;101256.19;4922145;28;120077;-75
2022/10/30 09:54:56;;;;;;;67.25;33.45;;;;;;;19.26;71.23;101260.75;4924027;28;120092;-75
2022/10/30 09:57:47;;;;;;;64.32;34.20;;;;;;;19.28;71.52;101260.25;4924287;28;120336;-76
2022/10/30 10:00:29;;;;;;;65.28;36.08;;;;;;;19.24;71.54;101257.69;4908398;28;119792;-75
2022/10/30 10:03:18;;;;;;;64.93;33.50;;;;;;;19.29;71.57;101267.31;4907425;28;120472;-76
2022/10/30 10:06:11;;;;;;;64.97;33.60;;;;;;;19.31;71.37;101267.59;4921396;28;120653;-76
2022/10/30 10:09:07;;;;;;;64.35;32.85;;;;;;;19.36;71.72;101272.41;4893923;28;120544;-76
2022/10/30 10:12:23;;;;;;;64.60;33.00;;;;;;;19.39;71.36;101290.13;4926521;28;120554;-76
2022/10/30 10:14:50;;;;;;;63.15;32.83;;;;;;;19.40;71.76;101281.31;4918220;28;120738;-75
2022/10/30 10:17:30;;;;;;;67.60;34.28;;;;;;;19.44;71.73;101289.41;4903990;28;120368;-75
2022/10/30 10:19:58;;;;;;;68.47;33.40;;;;;;;19.47;71.69;101286.41;4912637;28;120606;-76
2022/10/30 10:22:45;;;;;;;67.50;34.67;;;;;;;19.51;71.70;101286.16;4912412;28;120453;-75
2022/10/30 10:25:15;;;;;;;64.13;32.72;;;;;;;19.56;71.71;101286.22;4922340;28;121121;-76
2022/10/30 10:27:56;;;;;;;64.40;33.78;;;;;;;19.62;71.68;101280.66;4924030;28;120641;-75
2022/10/30 10:30:23;;;;;;;68.65;34.50;;;;;;;19.66;71.68;101280.47;4924055;28;120103;-77
2022/10/30 10:33:08;;;;;;;64.05;32.97;;;;;;;19.69;71.52;101294.13;4920699;28;121098;-76
2022/10/30 10:35:57;;;;;;;61.13;32.42;;;;;;;19.71;71.27;101288.06;4915578;28;120268;-75
2022/10/30 10:38:53;;;;;;;61.95;31.52;;;;;;;19.73;71.72;101297.44;4923546;28;120945;-76
2022/10/30 10:41:25;;;;;;;64.57;31.70;;;;;;;19.76;71.72;101292.88;4924063;28;120673;-75
2022/10/30 10:43:54;;;;;;;62.78;31.35;;;;;;;19.79;71.36;101300.22;4907137;28;120881;-76
2022/10/30 10:46:25;;;;;;;55.53;30.55;;;;;;;19.81;71.36;101301.25;4920144;28;121347;-75
2022/10/30 10:48:59;;;;;;;60.20;31.10;;;;;;;19.83;71.34;101289.63;4923822;28;120725;-76
2022/10/30 10:51:44;;;;;;;62.10;31.80;;;;;;;19.89;71.70;101287.63;4922265;28;120992;-75
2022/10/30 10:54:13;;;;;;;59.50;30.35;;;;;;;19.95;71.28;101291.19;4920014;28;120927;-76
2022/10/30 10:56:43;;;;;;;55.65;29.33;;;;;;;19.98;71.18;101281.06;4910461;28;121250;-77
2022/10/30 10:59:14;;;;;;;59.47;30.75;;;;;;;20.02;71.00;101285.13;4920975;28;121650;-76
2022/10/30 11:01:48;;;;;;;63.47;31.55;;;;;;;20.10;71.03;101288.94;4906194;28;121021;-76
2022/10/30 11:04:30;;;;;;;60.80;31.20;;;;;;;20.15;71.25;101288.22;4920468;28;121073;-76
2022/10/30 11:06:57;;;;;;;57.92;30.40;;;;;;;20.15;71.26;101281.88;4918862;28;122045;-75
2022/10/30 11:09:26;;;;;;;59.15;32.08;;;;;;;20.18;70.61;101290.00;4923361;28;121376;-76
2022/10/30 11:11:54;;;;;;;71.88;35.25;;;;;;;20.17;70.65;101282.16;4921369;28;121127;-75
2022/10/30 11:14:42;;;;;;;66.20;34.63;;;;;;;20.22;70.85;101293.28;4919570;28;121515;-76
2022/10/30 11:17:28;;;;;;;66.78;36.88;;;;;;;20.20;70.95;101284.69;4922621;28;121454;-76
2022/10/30 11:19:59;;;;;;;63.35;35.95;;;;;;;20.24;70.83;101298.38;4925949;28;121080;-75
2022/10/30 11:22:28;;;;;;;64.57;34.78;;;;;;;20.24;70.82;101298.38;4922219;28;121742;-76
2022/10/30 11:24:55;;;;;;;62.00;34.00;;;;;;;20.19;70.59;101291.53;4901280;28;121909;-75
2022/10/30 11:27:27;;;;;;;60.65;34.90;;;;;;;20.23;70.57;101311.53;4922972;28;121447;-76